• Join FlightAware (Why Join?)
  • Login
  • US Flag 
04:58PM EDT


 

Airport Tracker/Info


-or-


 

Live Flight TrackerFlight Track Log ✈ N777NC ✈ 29-Jun-2013 ✈ KATL - KBHM

Flight Track Log - Related Links

Times and Time Zones

All times are in EDT time to prevent confusion due to time zone crossing. See the N777NC flight status page for this flight to view local times or setup timezone preferences in your user account.

Time Position Orientation Groundspeed Altitude Reporting Facility
EDT Latitude Longitude Course Direction KTS MPH feet Rate Location/Type
03:21PM 33.6500 -84.4667 276° West 166 191 2,300  Level Atlanta TRACON
03:22PM 33.6667 -84.5333 287° West 264 304 4,200 2,460 Climbing Atlanta TRACON
03:23PM 33.6833 -84.6167 284° West 261 300 7,300 2,640 Climbing Atlanta TRACON
03:24PM 33.6785 -84.8356 277° West  Level FlightAware Approximate
03:24PM 33.6833 -84.7167 270° West 274 315 9,500  Level Atlanta TRACON
03:25PM 33.7004 -84.9208 276° West  Level FlightAware Approximate
03:25PM 33.6494 -84.8872 257° West 327 376 12,200  Level Atlanta Center
03:26PM 33.7089 -85.0230 276° West  Level FlightAware Approximate
03:26PM 33.6361 -84.9944 262° West 338 389 14,300  Level Atlanta Center
03:27PM 33.6372 -85.1142 271° West 343 395 16,000 1,800 Climbing Atlanta Center
03:28PM 33.6361 -85.2314 269° West 348 400 17,900 1,920 Climbing Atlanta Center
03:29PM 33.6244 -85.3511 263° West 358 412 19,900 1,020 Climbing Atlanta Center
03:30PM 33.6106 -85.4756 262° West 375 432 20,000 -540 Climbing Atlanta Center
03:31PM 33.6006 -85.6075 265° West 396 456 18,900 -2,220 Descending Atlanta Center
03:32PM 33.5906 -85.7297 264° West 390 449 15,600 -3,300 Descending Atlanta Center
03:33PM 33.5783 -85.8517 263° West 375 432 12,400 -2,340 Descending Atlanta Center
03:34PM 33.5747 -85.9661 268° West 362 417 11,000 -720 Descending Atlanta Center
03:35PM 33.5814 -86.0711 274° West 357 411 11,000 -60 Level Atlanta Center
03:36PM 33.5708 -86.1906 264° West 344 396 10,900 -600 Descending Atlanta Center
03:37PM 33.5628 -86.2900 264° West 325 374 9,800 -1,440 Descending Atlanta Center
03:38PM 33.5531 -86.3769 262° West 300 345 8,100 -1,560 Descending Atlanta Center
03:39PM 33.5431 -86.4539 261° West 282 325 6,700 -1,440 Descending Atlanta Center
03:40PM 33.5228 -86.5356 253° West 271 312 5,300 -1,320 Descending Atlanta Center
03:41PM 33.4878 -86.6067 239° Southwest 258 297 4,100 -1,080 Descending Atlanta Center
03:42PM 33.4550 -86.6806 242° Southwest 258 297 3,200 -900 Descending Atlanta Center